Time;durP1;ratioP1;P1;durP2;ratioP2;P2;SDS_P1;SDS_P2;PMS_P1;PMS_P2;Temp;Humidity;BMP_temperature;BMP_pressure;BME280_temperature;BME280_humidity;BME280_pressure;Samples;Min_cycle;Max_cycle;Signal;HPM_P1;HPM_P2
2022/07/05 00:01:20;;;;;;;9.07;5.60;;;;;;;;;;7732288;23;20016;-49
2022/07/05 00:04:20;;;;;;;8.30;5.80;;;;;;;;;;7733169;23;20107;-53
2022/07/05 00:07:21;;;;;;;7.73;6.40;;;;;;;;;;7731343;23;20023;-49
2022/07/05 00:10:22;;;;;;;9.05;6.07;;;;;;;;;;7733470;23;20110;-60
2022/07/05 00:13:23;;;;;;;8.03;5.87;;;;;;;;;;7734828;23;20687;-49
2022/07/05 00:16:23;;;;;;;7.00;5.63;;;;;;;;;;7731496;23;20012;-55
2022/07/05 00:19:24;;;;;;;7.00;6.30;;;;;;;;;;7730207;23;20024;-50
2022/07/05 00:22:25;;;;;;;9.88;6.13;;;;;;;;;;7705373;23;20047;-56
2022/07/05 00:25:25;;;;;;;8.23;6.13;;;;;;;;;;7732315;23;20404;-50
2022/07/05 00:28:26;;;;;;;7.33;6.00;;;;;;;;;;7727841;23;20039;-49
2022/07/05 00:31:27;;;;;;;7.90;6.00;;;;;;;;;;7733125;23;20549;-47
2022/07/05 00:34:27;;;;;;;8.40;6.53;;;;;;;;;;7732601;23;20028;-51
2022/07/05 00:37:28;;;;;;;7.03;6.00;;;;;;;;;;7728489;23;20020;-48
2022/07/05 00:40:28;;;;;;;7.17;6.10;;;;;;;;;;7733366;23;20473;-47
2022/07/05 00:43:29;;;;;;;8.60;6.50;;;;;;;;;;7757082;23;20027;-47
2022/07/05 00:46:30;;;;;;;10.13;6.30;;;;;;;;;;7744735;23;20020;-57
2022/07/05 00:49:32;;;;;;;7.67;6.10;;;;;;;;;;7746156;23;20099;-52
2022/07/05 00:52:33;;;;;;;11.02;6.30;;;;;;;;;;7745473;23;20672;-48
2022/07/05 00:55:35;;;;;;;8.57;6.50;;;;;;;;;;7747165;23;20103;-53
2022/07/05 00:58:35;;;;;;;7.50;6.70;;;;;;;;;;7746126;23;20095;-47
2022/07/05 01:01:36;;;;;;;8.10;6.80;;;;;;;;;;7744573;23;20102;-47
2022/07/05 01:04:37;;;;;;;8.87;6.83;;;;;;;;;;7742402;23;20313;-47
2022/07/05 01:07:37;;;;;;;8.47;6.77;;;;;;;;;;7741809;23;20024;-47
2022/07/05 01:10:38;;;;;;;7.93;6.73;;;;;;;;;;7741192;23;20498;-51
2022/07/05 01:13:39;;;;;;;10.20;7.33;;;;;;;;;;7742815;23;20016;-48
2022/07/05 01:16:39;;;;;;;8.57;6.97;;;;;;;;;;7739684;23;20020;-47
2022/07/05 01:19:40;;;;;;;10.13;7.90;;;;;;;;;;7739581;23;20246;-50
2022/07/05 01:22:54;;;;;;;9.37;7.17;;;;;;;;;;7741690;23;20019;-47
2022/07/05 01:25:56;;;;;;;8.02;6.88;;;;;;;;;;7739175;23;20395;-48
2022/07/05 01:28:57;;;;;;;7.80;6.85;;;;;;;;;;7741357;23;20099;-47
2022/07/05 01:31:57;;;;;;;9.00;7.33;;;;;;;;;;7742212;23;20024;-46
2022/07/05 01:34:58;;;;;;;8.40;6.80;;;;;;;;;;7740391;23;20035;-47
2022/07/05 01:37:59;;;;;;;9.50;7.27;;;;;;;;;;7743981;23;20023;-48
2022/07/05 01:40:59;;;;;;;9.27;7.25;;;;;;;;;;7745897;23;20097;-48
2022/07/05 01:44:00;;;;;;;8.93;7.17;;;;;;;;;;7747466;23;20119;-48
2022/07/05 01:47:06;;;;;;;10.63;7.87;;;;;;;;;;7745282;23;20412;-50
2022/07/05 01:50:08;;;;;;;10.68;8.02;;;;;;;;;;7746595;23;20031;-50
2022/07/05 01:53:14;;;;;;;11.90;8.70;;;;;;;;;;7747698;23;20095;-47
2022/07/05 01:56:14;;;;;;;11.02;9.00;;;;;;;;;;7745906;23;20448;-50
2022/07/05 01:59:15;;;;;;;13.23;8.83;;;;;;;;;;7747369;23;20066;-49
2022/07/05 02:02:15;;;;;;;13.90;9.80;;;;;;;;;;7746519;23;20173;-50
2022/07/05 02:05:16;;;;;;;12.50;9.50;;;;;;;;;;7746715;23;20331;-47
2022/07/05 02:08:17;;;;;;;14.60;9.20;;;;;;;;;;7759244;23;20523;-48
2022/07/05 02:11:18;;;;;;;12.07;8.50;;;;;;;;;;7740174;23;20111;-47
2022/07/05 02:14:19;;;;;;;10.97;8.47;;;;;;;;;;7742090;23;20461;-51
2022/07/05 02:17:19;;;;;;;10.60;8.40;;;;;;;;;;7740238;23;20016;-49
2022/07/05 02:20:20;;;;;;;14.57;9.17;;;;;;;;;;7751385;23;20436;-49
2022/07/05 02:23:20;;;;;;;11.67;9.03;;;;;;;;;;7740654;23;20044;-48
2022/07/05 02:26:21;;;;;;;13.70;9.27;;;;;;;;;;7741345;23;20143;-47
2022/07/05 02:29:22;;;;;;;13.90;9.93;;;;;;;;;;7740804;23;20029;-49
2022/07/05 02:32:22;;;;;;;13.20;9.40;;;;;;;;;;7743137;23;20318;-48
2022/07/05 02:35:23;;;;;;;11.87;9.67;;;;;;;;;;7741082;23;20024;-48
2022/07/05 02:38:23;;;;;;;11.33;9.03;;;;;;;;;;7740903;23;20436;-48
2022/07/05 02:41:24;;;;;;;12.97;9.33;;;;;;;;;;7741875;23;20456;-50
2022/07/05 02:44:24;;;;;;;10.50;8.97;;;;;;;;;;7739239;23;20036;-48
2022/07/05 02:47:25;;;;;;;11.37;8.80;;;;;;;;;;7741074;23;20016;-48
2022/07/05 02:50:26;;;;;;;11.10;8.87;;;;;;;;;;7741613;23;20408;-48
2022/07/05 02:53:26;;;;;;;11.97;9.23;;;;;;;;;;7739707;23;20452;-47
2022/07/05 02:56:27;;;;;;;11.73;9.47;;;;;;;;;;7746078;23;20019;-49
2022/07/05 02:59:28;;;;;;;10.73;9.00;;;;;;;;;;7742569;23;20055;-47
2022/07/05 03:02:28;;;;;;;12.47;9.83;;;;;;;;;;7743562;23;20102;-47
2022/07/05 03:05:29;;;;;;;14.17;9.43;;;;;;;;;;7743476;23;20023;-47
2022/07/05 03:08:29;;;;;;;11.50;9.43;;;;;;;;;;7741791;23;20022;-48
2022/07/05 03:11:30;;;;;;;10.70;9.33;;;;;;;;;;7739523;23;20448;-48
2022/07/05 03:14:30;;;;;;;10.50;9.40;;;;;;;;;;7742544;23;20343;-47
2022/07/05 03:17:31;;;;;;;11.77;9.33;;;;;;;;;;7740340;23;20016;-47
2022/07/05 03:20:31;;;;;;;14.13;9.60;;;;;;;;;;7742116;23;20020;-46
2022/07/05 03:23:32;;;;;;;11.93;9.53;;;;;;;;;;7744793;23;20087;-49
2022/07/05 03:26:32;;;;;;;14.07;10.07;;;;;;;;;;7740592;23;20580;-47
2022/07/05 03:29:33;;;;;;;13.00;10.10;;;;;;;;;;7744204;23;20019;-49
2022/07/05 03:32:34;;;;;;;13.63;10.33;;;;;;;;;;7743712;23;20360;-47
2022/07/05 03:35:34;;;;;;;12.67;9.77;;;;;;;;;;7742407;23;20031;-48
2022/07/05 03:38:36;;;;;;;14.50;10.50;;;;;;;;;;7744981;23;20016;-47
2022/07/05 03:41:36;;;;;;;12.27;10.10;;;;;;;;;;7739755;23;20020;-48
2022/07/05 03:44:37;;;;;;;14.10;10.17;;;;;;;;;;7743513;23;20048;-47
2022/07/05 03:47:39;;;;;;;13.50;10.03;;;;;;;;;;7744230;23;20024;-49
2022/07/05 03:50:39;;;;;;;13.80;10.13;;;;;;;;;;7715484;23;20016;-47
2022/07/05 03:53:40;;;;;;;15.87;10.57;;;;;;;;;;7742698;23;20020;-46
2022/07/05 03:56:41;;;;;;;13.80;10.37;;;;;;;;;;7743520;23;20259;-46
2022/07/05 03:59:41;;;;;;;13.17;10.37;;;;;;;;;;7742808;23;20020;-47
2022/07/05 04:02:42;;;;;;;13.10;10.47;;;;;;;;;;7742298;23;20073;-49
2022/07/05 04:05:42;;;;;;;17.00;10.77;;;;;;;;;;7743428;23;20051;-48
2022/07/05 04:08:43;;;;;;;15.37;10.63;;;;;;;;;;7742680;23;20243;-49
2022/07/05 04:11:43;;;;;;;15.07;11.10;;;;;;;;;;7742580;23;20027;-46
2022/07/05 04:14:44;;;;;;;12.93;10.10;;;;;;;;;;7740108;23;20109;-47
2022/07/05 04:17:55;;;;;;;14.10;10.83;;;;;;;;;;7741451;23;20027;-52
2022/07/05 04:20:55;;;;;;;16.77;10.43;;;;;;;;;;7743121;23;20589;-47
2022/07/05 04:23:56;;;;;;;13.60;10.90;;;;;;;;;;7743376;23;20016;-47
2022/07/05 04:26:57;;;;;;;18.03;11.73;;;;;;;;;;7743047;23;20138;-47
2022/07/05 04:29:57;;;;;;;18.77;13.10;;;;;;;;;;7739605;23;20160;-47
2022/07/05 04:32:58;;;;;;;20.40;13.07;;;;;;;;;;7743178;23;20020;-46
2022/07/05 04:35:58;;;;;;;19.90;13.30;;;;;;;;;;7741681;23;20089;-48
2022/07/05 04:38:59;;;;;;;24.77;14.27;;;;;;;;;;7741795;23;20086;-48
2022/07/05 04:41:59;;;;;;;22.33;14.90;;;;;;;;;;7739326;23;20022;-47
2022/07/05 04:45:00;;;;;;;22.53;14.40;;;;;;;;;;7740611;23;20016;-49
2022/07/05 04:48:01;;;;;;;19.67;13.73;;;;;;;;;;7742042;23;20020;-48
2022/07/05 04:51:01;;;;;;;16.77;13.23;;;;;;;;;;7741256;23;20265;-48
2022/07/05 04:54:02;;;;;;;21.90;13.83;;;;;;;;;;7742274;23;20023;-48
2022/07/05 04:57:03;;;;;;;18.07;13.10;;;;;;;;;;7740047;23;20030;-48
2022/07/05 05:00:06;;;;;;;17.67;12.30;;;;;;;;;;7742887;23;20091;-47
2022/07/05 05:03:06;;;;;;;17.63;12.63;;;;;;;;;;7743724;23;20037;-47
2022/07/05 05:06:07;;;;;;;17.17;13.73;;;;;;;;;;7739060;23;20105;-50
2022/07/05 05:09:08;;;;;;;23.27;13.80;;;;;;;;;;7739319;23;20469;-47
2022/07/05 05:12:08;;;;;;;21.70;13.97;;;;;;;;;;7741582;23;20024;-50
2022/07/05 05:15:09;;;;;;;27.23;14.47;;;;;;;;;;7741584;23;20378;-50
2022/07/05 05:18:10;;;;;;;19.50;13.80;;;;;;;;;;7742587;23;20447;-50
2022/07/05 05:21:11;;;;;;;17.50;13.07;;;;;;;;;;7742358;23;20027;-49
2022/07/05 05:24:11;;;;;;;20.67;13.47;;;;;;;;;;7744129;23;20024;-49
2022/07/05 05:27:12;;;;;;;16.37;13.30;;;;;;;;;;7740803;23;20020;-48
2022/07/05 05:30:13;;;;;;;21.20;15.50;;;;;;;;;;7740803;23;20499;-48
2022/07/05 05:33:14;;;;;;;19.38;14.65;;;;;;;;;;7741495;23;20880;-48
2022/07/05 05:36:15;;;;;;;18.40;14.50;;;;;;;;;;7742612;23;20017;-48
2022/07/05 05:39:15;;;;;;;19.60;13.63;;;;;;;;;;7737364;23;20094;-49
2022/07/05 05:42:16;;;;;;;21.17;14.43;;;;;;;;;;7744277;23;20456;-48
2022/07/05 05:45:17;;;;;;;19.00;13.83;;;;;;;;;;7740372;23;20488;-48
2022/07/05 05:48:19;;;;;;;18.00;14.80;;;;;;;;;;7743321;23;20077;-49
2022/07/05 05:51:20;;;;;;;22.45;18.08;;;;;;;;;;7740972;23;20016;-47
2022/07/05 05:54:21;;;;;;;24.80;17.67;;;;;;;;;;7740545;23;20074;-48
2022/07/05 05:57:21;;;;;;;34.93;27.57;;;;;;;;;;7742590;23;20012;-49
2022/07/05 06:00:22;;;;;;;42.43;33.20;;;;;;;;;;7740640;23;20024;-48
2022/07/05 06:03:26;;;;;;;28.93;21.33;;;;;;;;;;7711864;23;20039;-48
2022/07/05 06:06:27;;;;;;;27.10;20.48;;;;;;;;;;7739983;23;20052;-48
2022/07/05 06:09:27;;;;;;;37.73;28.50;;;;;;;;;;7741163;23;20103;-55
2022/07/05 06:12:28;;;;;;;38.17;25.20;;;;;;;;;;7741525;23;20123;-47
2022/07/05 06:15:28;;;;;;;25.57;20.90;;;;;;;;;;7740592;23;20016;-51
2022/07/05 06:18:29;;;;;;;28.30;20.30;;;;;;;;;;7740903;23;20335;-49
2022/07/05 06:21:29;;;;;;;34.27;23.23;;;;;;;;;;7742240;23;20134;-47
2022/07/05 06:24:30;;;;;;;28.10;21.07;;;;;;;;;;7742679;23;20020;-47
2022/07/05 06:27:31;;;;;;;21.23;17.93;;;;;;;;;;7739739;23;20030;-48
2022/07/05 06:30:33;;;;;;;25.17;18.17;;;;;;;;;;7739958;23;20448;-48
2022/07/05 06:33:34;;;;;;;25.70;18.55;;;;;;;;;;7753238;23;20098;-48
2022/07/05 06:36:34;;;;;;;24.73;18.87;;;;;;;;;;7742843;23;20012;-48
2022/07/05 06:39:35;;;;;;;26.43;18.37;;;;;;;;;;7715462;23;20087;-48
2022/07/05 06:42:36;;;;;;;21.65;18.52;;;;;;;;;;7741831;23;20043;-49
2022/07/05 06:45:37;;;;;;;26.40;19.23;;;;;;;;;;7741825;23;20027;-48
2022/07/05 06:48:37;;;;;;;24.75;17.05;;;;;;;;;;7740683;23;20119;-48
2022/07/05 06:51:38;;;;;;;22.50;16.93;;;;;;;;;;7742297;23;20085;-47
2022/07/05 06:54:39;;;;;;;21.13;15.90;;;;;;;;;;7741550;23;20023;-47
2022/07/05 06:57:39;;;;;;;21.13;16.37;;;;;;;;;;7743302;23;20012;-50
2022/07/05 07:00:41;;;;;;;21.77;16.33;;;;;;;;;;7744845;23;20102;-49
2022/07/05 07:03:42;;;;;;;22.83;16.20;;;;;;;;;;7744181;23;20027;-49
2022/07/05 07:06:42;;;;;;;22.30;18.77;;;;;;;;;;7744609;23;20016;-48
2022/07/05 07:09:43;;;;;;;34.83;26.73;;;;;;;;;;7743881;23;20016;-50
2022/07/05 07:12:43;;;;;;;19.93;15.67;;;;;;;;;;7741077;23;20023;-48
2022/07/05 07:15:44;;;;;;;20.13;16.33;;;;;;;;;;7742085;23;20022;-48
2022/07/05 07:18:44;;;;;;;22.23;16.17;;;;;;;;;;7743043;23;20336;-50
2022/07/05 07:21:45;;;;;;;21.37;16.17;;;;;;;;;;7744152;23;20126;-52
2022/07/05 07:24:45;;;;;;;19.27;16.20;;;;;;;;;;7742227;23;20074;-49
2022/07/05 07:27:49;;;;;;;20.50;15.60;;;;;;;;;;7740865;23;20095;-48
2022/07/05 07:30:49;;;;;;;20.67;15.73;;;;;;;;;;7743536;23;20094;-48
2022/07/05 07:33:50;;;;;;;23.40;17.13;;;;;;;;;;7743364;23;20062;-48
2022/07/05 07:36:51;;;;;;;23.63;18.23;;;;;;;;;;7745265;23;20024;-51
2022/07/05 07:39:52;;;;;;;32.85;24.33;;;;;;;;;;7742979;23;20024;-49
2022/07/05 07:42:52;;;;;;;25.03;18.40;;;;;;;;;;7741414;23;20578;-49
2022/07/05 07:45:53;;;;;;;30.73;22.67;;;;;;;;;;7744019;23;20102;-49
2022/07/05 07:48:53;;;;;;;29.47;22.10;;;;;;;;;;7742651;23;20108;-48
2022/07/05 07:51:54;;;;;;;36.57;29.37;;;;;;;;;;7742371;23;20024;-48
2022/07/05 07:54:54;;;;;;;37.60;28.63;;;;;;;;;;7742396;23;20409;-47
2022/07/05 07:57:55;;;;;;;28.90;21.17;;;;;;;;;;7741368;23;20077;-51
2022/07/05 08:00:55;;;;;;;26.53;21.50;;;;;;;;;;7743721;23;20051;-48
2022/07/05 08:03:56;;;;;;;36.67;28.50;;;;;;;;;;7744757;23;20343;-52
2022/07/05 08:06:56;;;;;;;25.37;19.47;;;;;;;;;;7744031;23;20309;-48
2022/07/05 08:09:57;;;;;;;21.83;17.53;;;;;;;;;;7741718;23;20586;-50
2022/07/05 08:12:58;;;;;;;19.90;15.53;;;;;;;;;;7741255;23;20055;-52
2022/07/05 08:15:58;;;;;;;18.23;14.73;;;;;;;;;;7743538;23;20020;-53
2022/07/05 08:22:19;;;;;;;18.55;14.40;;;;;;;;;;7742405;23;20363;-49
2022/07/05 08:25:20;;;;;;;15.35;12.48;;;;;;;;;;7741554;23;20420;-51
2022/07/05 08:28:21;;;;;;;17.88;13.65;;;;;;;;;;7742420;23;20016;-53
2022/07/05 08:31:21;;;;;;;15.00;12.53;;;;;;;;;;7741840;23;20023;-49
2022/07/05 08:34:22;;;;;;;15.03;12.40;;;;;;;;;;7743100;23;20065;-48
2022/07/05 08:37:23;;;;;;;15.70;12.60;;;;;;;;;;7743225;23;20099;-50
2022/07/05 08:40:29;;;;;;;15.60;12.33;;;;;;;;;;7751879;23;20103;-49
2022/07/05 08:43:30;;;;;;;22.25;17.60;;;;;;;;;;7742007;23;20320;-52
2022/07/05 08:46:32;;;;;;;13.32;10.23;;;;;;;;;;7743281;23;20458;-48
2022/07/05 08:49:33;;;;;;;;;;;;;;;;;;7742899;23;20455;-49
2022/07/05 08:52:34;;;;;;;17.50;14.45;;;;;;;;;;7742932;23;20316;-52
2022/07/05 08:55:35;;;;;;;16.70;12.82;;;;;;;;;;7742274;23;20027;-47
2022/07/05 08:58:36;;;;;;;23.17;11.80;;;;;;;;;;7743950;23;20016;-49
2022/07/05 09:01:39;;;;;;;24.73;15.13;;;;;;;;;;7742751;23;20043;-49
2022/07/05 09:04:44;;;;;;;18.23;12.73;;;;;;;;;;7743714;23;20355;-52
2022/07/05 09:07:54;;;;;;;16.08;12.73;;;;;;;;;;7742785;23;20077;-48
2022/07/05 09:10:55;;;;;;;15.35;11.68;;;;;;;;;;7741778;23;20055;-50
2022/07/05 09:13:55;;;;;;;20.77;14.17;;;;;;;;;;7741746;23;20106;-47
2022/07/05 09:16:56;;;;;;;17.80;13.70;;;;;;;;;;7740380;23;20016;-49
2022/07/05 09:20:12;;;;;;;14.37;11.13;;;;;;;;;;7739824;23;20095;-50
2022/07/05 09:23:19;;;;;;;27.75;21.25;;;;;;;;;;7745373;23;20016;-49
2022/07/05 09:26:19;;;;;;;18.55;14.40;;;;;;;;;;7746829;23;20091;-49
2022/07/05 09:29:20;;;;;;;15.97;11.83;;;;;;;;;;7747907;23;20023;-49
2022/07/05 09:32:25;;;;;;;14.30;11.90;;;;;;;;;;7746478;23;20538;-48
2022/07/05 09:35:25;;;;;;;15.27;11.68;;;;;;;;;;7746906;23;20016;-48
2022/07/05 09:38:27;;;;;;;18.20;12.07;;;;;;;;;;7747003;23;20013;-48
2022/07/05 09:41:28;;;;;;;14.25;10.65;;;;;;;;;;7747115;23;20028;-47
2022/07/05 09:44:29;;;;;;;12.50;10.53;;;;;;;;;;7747012;23;20050;-48
2022/07/05 09:47:29;;;;;;;13.23;10.57;;;;;;;;;;7747004;23;20095;-48
2022/07/05 09:50:34;;;;;;;12.67;9.67;;;;;;;;;;7747258;23;20339;-47
2022/07/05 09:53:44;;;;;;;13.00;10.18;;;;;;;;;;7746955;23;20012;-51
2022/07/05 09:56:48;;;;;;;14.45;10.63;;;;;;;;;;7746224;23;20112;-48
2022/07/05 10:00:04;;;;;;;13.60;10.18;;;;;;;;;;7746030;23;20031;-48
2022/07/05 10:03:05;;;;;;;13.68;10.50;;;;;;;;;;7746309;23;20099;-49
2022/07/05 10:06:10;;;;;;;12.10;9.63;;;;;;;;;;7746140;23;20016;-50
2022/07/05 10:09:11;;;;;;;12.27;10.48;;;;;;;;;;7745678;23;20587;-49
2022/07/05 10:12:12;;;;;;;12.25;10.50;;;;;;;;;;7746483;23;20024;-49
2022/07/05 10:15:15;;;;;;;17.17;11.17;;;;;;;;;;7746355;23;20031;-50
2022/07/05 10:18:22;;;;;;;13.30;10.43;;;;;;;;;;7746299;23;20020;-48
2022/07/05 10:21:25;;;;;;;13.43;9.95;;;;;;;;;;7746983;23;20471;-48
2022/07/05 10:24:29;;;;;;;13.50;9.85;;;;;;;;;;7747037;23;20067;-50
2022/07/05 10:27:32;;;;;;;14.15;8.95;;;;;;;;;;7745809;23;20123;-48
2022/07/05 10:30:33;;;;;;;11.32;9.02;;;;;;;;;;7746004;23;20476;-51
2022/07/05 10:33:34;;;;;;;10.25;8.82;;;;;;;;;;7748118;23;20095;-49
2022/07/05 10:36:35;;;;;;;12.05;9.20;;;;;;;;;;7748592;23;20022;-49
2022/07/05 10:39:36;;;;;;;19.10;14.48;;;;;;;;;;7749434;23;20455;-48
2022/07/05 10:42:47;;;;;;;18.77;14.93;;;;;;;;;;7749231;23;20091;-51
2022/07/05 10:45:49;;;;;;;17.65;14.10;;;;;;;;;;7746994;23;20107;-51
2022/07/05 10:49:09;;;;;;;15.85;13.02;;;;;;;;;;7747781;23;20016;-50
2022/07/05 10:52:23;;;;;;;14.70;12.77;;;;;;;;;;7748496;23;20509;-51
2022/07/05 10:55:24;;;;;;;10.73;8.70;;;;;;;;;;7747565;23;20439;-52
2022/07/05 10:58:46;;;;;;;10.70;9.00;;;;;;;;;;7747501;23;20084;-50
2022/07/05 11:01:47;;;;;;;15.95;12.30;;;;;;;;;;7747990;23;20483;-57
2022/07/05 11:04:55;;;;;;;13.97;11.40;;;;;;;;;;7746695;23;20012;-49
2022/07/05 11:08:00;;;;;;;13.27;10.80;;;;;;;;;;7746737;23;20016;-52
2022/07/05 11:11:11;;;;;;;9.77;7.78;;;;;;;;;;7746689;23;20040;-51
2022/07/05 11:14:29;;;;;;;13.13;9.80;;;;;;;;;;7747563;23;20020;-55
2022/07/05 11:17:30;;;;;;;13.50;10.02;;;;;;;;;;7747392;23;20074;-48
2022/07/05 11:20:32;;;;;;;15.90;10.63;;;;;;;;;;7747499;23;20017;-52
2022/07/05 11:23:32;;;;;;;;;;;;;;;;;;7749522;23;20094;-52
2022/07/05 11:26:33;;;;;;;12.05;9.25;;;;;;;;;;7747198;23;20014;-52
2022/07/05 11:29:53;;;;;;;10.97;7.93;;;;;;;;;;7747919;23;20039;-56
2022/07/05 11:32:53;;;;;;;12.32;8.88;;;;;;;;;;7747220;23;20328;-49
2022/07/05 11:35:56;;;;;;;9.43;6.93;;;;;;;;;;7747863;23;20016;-48
2022/07/05 11:39:06;;;;;;;11.10;7.93;;;;;;;;;;7748049;23;20023;-53
2022/07/05 11:42:20;;;;;;;7.93;5.80;;;;;;;;;;7746979;23;20015;-52
2022/07/05 11:45:20;;;;;;;8.18;5.28;;;;;;;;;;7748764;23;20028;-59
2022/07/05 11:48:21;;;;;;;6.63;5.07;;;;;;;;;;7746923;23;20024;-52
2022/07/05 11:51:22;;;;;;;5.97;4.68;;;;;;;;;;7746045;23;20344;-50
2022/07/05 11:54:24;;;;;;;6.90;5.67;;;;;;;;;;7742135;23;20019;-51
2022/07/05 11:57:25;;;;;;;9.15;6.53;;;;;;;;;;7741677;23;20055;-50
2022/07/05 12:00:27;;;;;;;;;;;;;;;;;;7745310;23;20012;-51
2022/07/05 12:03:28;;;;;;;10.57;7.78;;;;;;;;;;7743759;23;19997;-52
2022/07/05 12:06:29;;;;;;;9.52;7.38;;;;;;;;;;7745638;23;20099;-49
2022/07/05 12:12:51;;;;;;;10.30;8.50;;;;;;;;;;7748149;23;20036;-48
2022/07/05 12:15:58;;;;;;;;;;;;;;;;;;7747473;23;20044;-51
2022/07/05 12:19:01;;;;;;;11.50;8.73;;;;;;;;;;7746347;23;19947;-50
2022/07/05 12:22:01;;;;;;;9.70;7.55;;;;;;;;;;7748108;23;20020;-52
2022/07/05 12:25:05;;;;;;;8.23;6.83;;;;;;;;;;7745251;23;20023;-50
2022/07/05 12:28:09;;;;;;;9.27;6.70;;;;;;;;;;7743235;23;20024;-49
2022/07/05 12:31:18;;;;;;;9.68;7.20;;;;;;;;;;7745882;23;20107;-48
2022/07/05 12:34:21;;;;;;;7.75;5.75;;;;;;;;;;7745999;23;20070;-50
2022/07/05 12:37:26;;;;;;;7.55;5.90;;;;;;;;;;7747185;23;20028;-50
2022/07/05 12:40:27;;;;;;;10.00;6.78;;;;;;;;;;7747010;23;20024;-48
2022/07/05 12:43:28;;;;;;;8.77;6.30;;;;;;;;;;7758036;23;20046;-55
2022/07/05 12:46:39;;;;;;;11.03;7.00;;;;;;;;;;7745295;23;20087;-48
2022/07/05 12:49:55;;;;;;;8.37;5.97;;;;;;;;;;7746720;23;20127;-50
2022/07/05 13:00:03;;;;;;;8.25;6.18;;;;;;;;;;7729530;23;20486;-48
2022/07/05 13:03:04;;;;;;;8.52;5.78;;;;;;;;;;7747454;23;20039;-48
2022/07/05 13:06:04;;;;;;;9.03;6.00;;;;;;;;;;7745784;23;20106;-50
2022/07/05 13:09:05;;;;;;;9.03;5.97;;;;;;;;;;7746416;23;20016;-55
2022/07/05 13:12:21;;;;;;;8.10;5.20;;;;;;;;;;7746210;23;20024;-49
2022/07/05 13:15:22;;;;;;;7.88;5.40;;;;;;;;;;7746467;23;20020;-49
2022/07/05 13:18:25;;;;;;;8.70;5.93;;;;;;;;;;7747156;23;20437;-51
2022/07/05 13:21:25;;;;;;;9.45;6.10;;;;;;;;;;7747028;23;20055;-51
2022/07/05 13:24:26;;;;;;;7.13;5.37;;;;;;;;;;7735958;23;20742;-49
2022/07/05 13:27:26;;;;;;;8.70;5.63;;;;;;;;;;7729769;23;20020;-51
2022/07/05 13:30:27;;;;;;;8.33;5.20;;;;;;;;;;7730004;23;20407;-48
2022/07/05 13:33:28;;;;;;;8.87;5.37;;;;;;;;;;7729209;23;20012;-49
2022/07/05 13:36:28;;;;;;;12.10;5.63;;;;;;;;;;7730714;23;20028;-51
2022/07/05 13:39:29;;;;;;;9.10;5.47;;;;;;;;;;7730999;23;20031;-53
2022/07/05 13:42:29;;;;;;;8.43;5.70;;;;;;;;;;7729576;23;20012;-52
2022/07/05 13:45:30;;;;;;;8.87;6.33;;;;;;;;;;7729870;23;20073;-52
2022/07/05 13:48:31;;;;;;;7.10;5.40;;;;;;;;;;7735777;23;20020;-55
2022/07/05 13:51:31;;;;;;;7.83;5.90;;;;;;;;;;7736245;23;20023;-48
2022/07/05 13:54:33;;;;;;;;;;;;;;;;;;7729680;23;20048;-53
2022/07/05 13:57:34;;;;;;;9.35;6.32;;;;;;;;;;7728882;23;19976;-54
2022/07/05 14:00:34;;;;;;;8.87;5.57;;;;;;;;;;7730179;23;20022;-47
2022/07/05 14:03:35;;;;;;;8.60;5.90;;;;;;;;;;7731249;23;20452;-47
2022/07/05 14:06:37;;;;;;;8.87;6.90;;;;;;;;;;7730362;23;20016;-47
2022/07/05 14:09:38;;;;;;;9.20;6.78;;;;;;;;;;7729103;23;20098;-51
2022/07/05 14:12:38;;;;;;;10.50;7.07;;;;;;;;;;7731350;23;20034;-49
2022/07/05 14:15:39;;;;;;;11.90;7.47;;;;;;;;;;7727944;23;20020;-51
2022/07/05 14:18:40;;;;;;;9.03;7.60;;;;;;;;;;7729253;23;20146;-51
2022/07/05 14:21:45;;;;;;;9.53;7.10;;;;;;;;;;7728541;23;20329;-48
2022/07/05 14:24:45;;;;;;;12.40;8.02;;;;;;;;;;7728901;23;20020;-53
2022/07/05 14:27:46;;;;;;;12.67;9.20;;;;;;;;;;7728066;23;20031;-53
2022/07/05 14:30:46;;;;;;;12.20;8.77;;;;;;;;;;7727416;23;20435;-50
2022/07/05 14:33:47;;;;;;;11.67;8.53;;;;;;;;;;7727590;23;20024;-48
2022/07/05 14:36:47;;;;;;;11.73;8.67;;;;;;;;;;7727436;23;20093;-50
2022/07/05 14:39:49;;;;;;;10.83;8.67;;;;;;;;;;7729352;23;20020;-50
2022/07/05 14:42:53;;;;;;;;;;;;;;;;;;7730163;23;20117;-47
2022/07/05 14:45:56;;;;;;;12.75;8.13;;;;;;;;;;7725113;23;19919;-51
2022/07/05 14:48:57;;;;;;;12.40;8.13;;;;;;;;;;7729167;23;20020;-48
2022/07/05 14:51:57;;;;;;;11.77;7.73;;;;;;;;;;7730122;23;20352;-51
2022/07/05 14:54:58;;;;;;;9.97;7.83;;;;;;;;;;7729898;23;20409;-47
2022/07/05 14:57:59;;;;;;;11.87;8.40;;;;;;;;;;7709569;23;20351;-48
2022/07/05 15:00:59;;;;;;;11.50;8.17;;;;;;;;;;7735407;23;20016;-49
2022/07/05 15:04:00;;;;;;;16.17;9.13;;;;;;;;;;7734272;23;20078;-49
2022/07/05 15:07:00;;;;;;;10.90;7.70;;;;;;;;;;7737443;23;20016;-52
2022/07/05 15:10:02;;;;;;;10.20;7.67;;;;;;;;;;7734866;23;20020;-48
2022/07/05 15:13:03;;;;;;;10.63;7.85;;;;;;;;;;7747840;23;20086;-49
2022/07/05 15:16:05;;;;;;;13.27;7.97;;;;;;;;;;7737450;23;20032;-48
2022/07/05 15:19:09;;;;;;;10.63;8.25;;;;;;;;;;7739322;23;20020;-49
2022/07/05 15:22:12;;;;;;;11.90;9.07;;;;;;;;;;7739466;23;20110;-48
2022/07/05 15:25:13;;;;;;;10.82;8.85;;;;;;;;;;7734187;23;20023;-55
2022/07/05 15:28:15;;;;;;;13.57;8.80;;;;;;;;;;7736775;23;20109;-48
2022/07/05 15:31:16;;;;;;;11.45;8.52;;;;;;;;;;7743190;23;20565;-48
2022/07/05 15:34:16;;;;;;;12.60;8.40;;;;;;;;;;7737808;23;20016;-48
2022/07/05 15:37:17;;;;;;;13.30;8.47;;;;;;;;;;7737058;23;20026;-53
2022/07/05 15:40:18;;;;;;;14.10;8.90;;;;;;;;;;7736407;23;20020;-49
2022/07/05 15:43:19;;;;;;;12.43;9.17;;;;;;;;;;7737013;23;20028;-49
2022/07/05 15:46:20;;;;;;;14.55;10.05;;;;;;;;;;7738162;23;20043;-49
2022/07/05 15:49:21;;;;;;;15.03;10.23;;;;;;;;;;7751092;23;20024;-50
2022/07/05 15:52:22;;;;;;;15.13;11.47;;;;;;;;;;7738093;23;20731;-46
2022/07/05 15:55:23;;;;;;;15.90;11.20;;;;;;;;;;7744578;23;20517;-47
2022/07/05 15:58:23;;;;;;;17.15;11.45;;;;;;;;;;7738617;23;20046;-49
2022/07/05 16:01:24;;;;;;;16.27;10.70;;;;;;;;;;7736692;23;20051;-50
2022/07/05 16:04:31;;;;;;;14.77;11.20;;;;;;;;;;7736481;23;20119;-49
2022/07/05 16:07:31;;;;;;;15.57;11.20;;;;;;;;;;7736974;23;20387;-54
2022/07/05 16:10:32;;;;;;;17.03;11.37;;;;;;;;;;7735667;23;20103;-53
2022/07/05 16:13:32;;;;;;;15.77;11.77;;;;;;;;;;7737643;23;20012;-51
2022/07/05 16:16:33;;;;;;;16.73;11.43;;;;;;;;;;7738280;23;20103;-56
2022/07/05 16:19:34;;;;;;;14.73;10.87;;;;;;;;;;7737855;23;20436;-57
2022/07/05 16:22:34;;;;;;;17.80;11.67;;;;;;;;;;7737188;23;20016;-48
2022/07/05 16:25:35;;;;;;;18.27;12.20;;;;;;;;;;7734362;23;20016;-50
2022/07/05 16:28:37;;;;;;;18.33;12.53;;;;;;;;;;7750187;23;20044;-53
2022/07/05 16:31:38;;;;;;;19.00;12.75;;;;;;;;;;7737413;23;20016;-48
2022/07/05 16:34:38;;;;;;;20.70;13.67;;;;;;;;;;7735605;23;20103;-47
2022/07/05 16:37:39;;;;;;;19.03;11.97;;;;;;;;;;7737816;23;20264;-46
2022/07/05 16:40:39;;;;;;;23.73;12.87;;;;;;;;;;7737896;23;20038;-57
2022/07/05 16:43:42;;;;;;;19.30;14.67;;;;;;;;;;7736408;23;20024;-49
2022/07/05 16:46:43;;;;;;;22.13;15.07;;;;;;;;;;7736726;23;20119;-52
2022/07/05 16:49:45;;;;;;;22.23;15.07;;;;;;;;;;7737980;23;20016;-57
2022/07/05 16:52:45;;;;;;;23.02;15.50;;;;;;;;;;7735331;23;20107;-51
2022/07/05 16:55:46;;;;;;;25.77;16.23;;;;;;;;;;7733767;23;20386;-53
2022/07/05 16:58:50;;;;;;;27.37;17.03;;;;;;;;;;7736557;23;20699;-52
2022/07/05 17:01:50;;;;;;;24.88;15.13;;;;;;;;;;7735332;23;20020;-51
2022/07/05 17:04:51;;;;;;;20.57;15.17;;;;;;;;;;7734991;23;20027;-49
2022/07/05 17:07:52;;;;;;;21.33;13.47;;;;;;;;;;7748629;23;20047;-51
2022/07/05 17:10:52;;;;;;;20.93;13.83;;;;;;;;;;7736450;23;20024;-56
2022/07/05 17:13:53;;;;;;;21.27;13.73;;;;;;;;;;7709491;23;20020;-49
2022/07/05 17:16:54;;;;;;;19.07;13.60;;;;;;;;;;7736144;23;20802;-55
2022/07/05 17:19:54;;;;;;;22.50;14.20;;;;;;;;;;7735809;23;20094;-48
2022/07/05 17:22:55;;;;;;;23.60;14.37;;;;;;;;;;7734700;23;20166;-52
2022/07/05 17:25:55;;;;;;;24.10;14.30;;;;;;;;;;7735836;23;20027;-54
2022/07/05 17:28:56;;;;;;;23.73;16.83;;;;;;;;;;7738146;23;20142;-55
2022/07/05 17:31:57;;;;;;;26.57;16.20;;;;;;;;;;7735445;23;20333;-49
2022/07/05 17:34:58;;;;;;;25.80;16.38;;;;;;;;;;7736088;23;20098;-49
2022/07/05 17:37:58;;;;;;;28.90;16.80;;;;;;;;;;7736767;23;20024;-48
2022/07/05 17:40:59;;;;;;;49.60;32.70;;;;;;;;;;7734165;23;20432;-55
2022/07/05 17:44:00;;;;;;;63.87;46.70;;;;;;;;;;7734766;23;20026;-55
2022/07/05 17:47:01;;;;;;;26.47;16.47;;;;;;;;;;7735168;23;20020;-57
2022/07/05 17:50:01;;;;;;;25.13;16.00;;;;;;;;;;7735109;23;20020;-48
2022/07/05 17:53:02;;;;;;;23.20;15.30;;;;;;;;;;7733449;23;20020;-50
2022/07/05 17:56:03;;;;;;;22.63;16.30;;;;;;;;;;7735089;23;20012;-50
2022/07/05 17:59:03;;;;;;;22.90;15.40;;;;;;;;;;7736266;23;20099;-52
2022/07/05 18:02:04;;;;;;;29.50;15.93;;;;;;;;;;7728979;23;20015;-52
2022/07/05 18:05:05;;;;;;;25.93;16.13;;;;;;;;;;7743261;23;20024;-48